Impacts TAF Board
For situational awareness. Not to be used for flight planning purposes.
IDs:

KPIT - Pittsburgh Intl, PA, US

Issued at 1455 UTC 24 Sep 2018
Updated at 1700 UTC 24 Sep 2018
Potential Impact None Slight Moderate High
Time<<25/17Z 25/18Z 25/19Z 25/20Z 25/21Z 25/22Z 25/23Z 26/00Z 26/01Z 26/02Z 26/03Z 26/04Z 26/05Z
Type PRVL
VIS >6
CIG 10
Cover OVC
FltCat MVFR
WX VCSH
WDir 180
WSpd 10
WGst --
Raw TAF
KPIT 241455Z 2415/2518 12010KT P6SM BKN050
  FM241900 13012G20KT P6SM -SHRA OVC025
  FM242300 13012KT P6SM VCSH OVC035 WS020/15040KT
  FM250300 13010KT 5SM -SHRA OVC025 WS020/16045KT
  FM250600 15010KT 3SM -SHRA OVC010 WS020/19045KT
  FM251200 18010KT P6SM VCSH OVC010


METAR Board
Radar Display
Forecast Discussion
For situational awareness. Not to be used for flight planning purposes.